Time;durP1;ratioP1;P1;durP2;ratioP2;P2;SDS_P1;SDS_P2;PMS_P1;PMS_P2;Temp;Humidity;BMP_temperature;BMP_pressure;BME280_temperature;BME280_humidity;BME280_pressure;Samples;Min_cycle;Max_cycle;Signal;HPM_P1;HPM_P2
2023/04/17 00:00:59;;;;;;;29.45;17.83;;;8.70;1.00;;;;;;5033009;28;20033;-79
2023/04/17 00:03:25;;;;;;;29.02;19.23;;;8.70;1.00;;;;;;5033520;28;20038;-79
2023/04/17 00:05:52;;;;;;;26.83;18.13;;;8.70;2.30;;;;;;5032600;28;20041;-78
2023/04/17 00:08:19;;;;;;;31.67;19.20;;;8.70;3.60;;;;;;5040739;28;20041;-79
2023/04/17 00:10:45;;;;;;;28.35;18.55;;;8.60;5.80;;;;;;5032203;28;20026;-79
2023/04/17 00:13:11;;;;;;;33.50;18.90;;;8.70;1.90;;;;;;5033468;28;20033;-79
2023/04/17 00:15:37;;;;;;;30.08;18.48;;;8.70;2.30;;;;;;5032628;28;20038;-79
2023/04/17 00:18:03;;;;;;;27.27;17.30;;;8.70;5.30;;;;;;5033590;28;20037;-78
2023/04/17 00:20:29;;;;;;;29.48;19.63;;;8.70;8.20;;;;;;5032979;28;20048;-79
2023/04/17 00:22:55;;;;;;;28.80;20.00;;;8.60;11.90;;;;;;5031197;28;20037;-79
2023/04/17 00:25:22;;;;;;;29.98;19.52;;;8.60;16.70;;;;;;5031699;28;20085;-79
2023/04/17 00:27:48;;;;;;;28.90;16.70;;;8.60;16.20;;;;;;5031833;28;20040;-79
2023/04/17 00:30:14;;;;;;;25.95;17.00;;;8.60;12.90;;;;;;5032811;28;20041;-79
2023/04/17 00:32:40;;;;;;;29.27;18.77;;;8.60;11.50;;;;;;5031743;28;20092;-79
2023/04/17 00:35:07;;;;;;;29.35;19.23;;;8.60;12.00;;;;;;5032676;28;20033;-79
2023/04/17 00:37:34;;;;;;;29.25;17.95;;;8.60;14.20;;;;;;5032688;28;20064;-79
2023/04/17 00:40:01;;;;;;;30.98;19.50;;;8.60;18.30;;;;;;5031983;28;20040;-79
2023/04/17 00:42:27;;;;;;;29.67;18.00;;;8.60;20.30;;;;;;5031187;28;20041;-79
2023/04/17 00:44:53;;;;;;;28.17;18.63;;;8.60;22.70;;;;;;5031600;28;20033;-79
2023/04/17 00:47:21;;;;;;;29.60;19.10;;;8.50;25.90;;;;;;5039868;28;20046;-77
2023/04/17 00:49:49;;;;;;;33.22;20.10;;;8.50;28.10;;;;;;5039870;28;20046;-77
2023/04/17 00:52:26;;;;;;;30.65;18.92;;;8.50;32.40;;;;;;5029103;28;20044;-78
2023/04/17 00:54:53;;;;;;;26.75;18.67;;;8.50;33.90;;;;;;5028620;28;20033;-78
2023/04/17 00:57:20;;;;;;;33.60;19.75;;;8.50;40.60;;;;;;5032137;28;20032;-79
2023/04/17 00:59:47;;;;;;;32.72;19.08;;;8.50;39.70;;;;;;5031581;28;20387;-79
2023/04/17 01:02:13;;;;;;;29.55;19.73;;;8.50;45.70;;;;;;5032340;28;20451;-78
2023/04/17 01:04:39;;;;;;;33.47;21.63;;;8.50;50.80;;;;;;5031447;28;20033;-79
2023/04/17 01:07:06;;;;;;;32.08;19.60;;;8.50;51.60;;;;;;5030669;28;20037;-79
2023/04/17 01:09:32;;;;;;;28.98;19.15;;;8.40;48.40;;;;;;5031786;28;20484;-79
2023/04/17 01:12:37;;;;;;;27.92;18.90;;;8.40;53.90;;;;;;5030474;28;20048;-78
2023/04/17 01:15:04;;;;;;;28.02;18.45;;;8.50;52.80;;;;;;5012130;28;20612;-79
2023/04/17 01:17:30;;;;;;;31.73;20.85;;;8.50;52.10;;;;;;5012639;28;20045;-79
2023/04/17 01:19:57;;;;;;;29.02;18.98;;;8.50;57.30;;;;;;5028694;28;20149;-79
2023/04/17 01:22:23;;;;;;;30.90;19.75;;;8.40;61.30;;;;;;5013161;28;20033;-78
2023/04/17 01:24:54;;;;;;;30.35;19.65;;;8.40;67.40;;;;;;5028461;28;20064;-79
2023/04/17 01:27:21;;;;;;;32.67;18.48;;;8.40;74.40;;;;;;5012516;28;20541;-78
2023/04/17 01:29:48;;;;;;;31.60;19.70;;;8.40;78.30;;;;;;5009756;28;20057;-78
2023/04/17 01:32:14;;;;;;;29.08;18.83;;;8.40;80.90;;;;;;5029125;28;20041;-78
2023/04/17 01:34:40;;;;;;;33.78;20.17;;;8.40;84.30;;;;;;5012276;28;20042;-79
2023/04/17 01:37:07;;;;;;;33.25;19.40;;;8.40;86.80;;;;;;4995618;28;20204;-78
2023/04/17 01:39:34;;;;;;;33.47;20.10;;;8.40;86.30;;;;;;5012739;28;20056;-78
2023/04/17 01:42:00;;;;;;;33.90;19.58;;;8.40;87.30;;;;;;5027925;28;20053;-78
2023/04/17 01:44:27;;;;;;;29.77;18.60;;;8.40;77.20;;;;;;5029387;28;20037;-78
2023/04/17 01:46:53;;;;;;;29.38;19.60;;;8.40;71.00;;;;;;5030483;28;20053;-78
2023/04/17 01:49:21;;;;;;;31.88;19.38;;;8.40;72.30;;;;;;5030789;28;20037;-78
2023/04/17 01:51:47;;;;;;;29.83;18.95;;;8.40;72.70;;;;;;5030482;28;20029;-79
2023/04/17 01:54:14;;;;;;;29.55;18.15;;;8.30;74.80;;;;;;5031478;28;20036;-78
2023/04/17 01:56:41;;;;;;;30.70;20.38;;;8.40;75.60;;;;;;5031090;28;20033;-79
2023/04/17 01:59:08;;;;;;;33.08;20.42;;;8.40;78.60;;;;;;5038245;28;20050;-78
2023/04/17 02:01:35;;;;;;;30.52;18.75;;;8.40;78.00;;;;;;5030491;28;20410;-78
2023/04/17 02:04:02;;;;;;;29.17;18.48;;;8.40;73.60;;;;;;5031299;28;20045;-78
2023/04/17 02:06:28;;;;;;;31.42;20.40;;;8.40;65.30;;;;;;5026221;28;20045;-77
2023/04/17 02:08:54;;;;;;;36.60;20.95;;;8.40;60.70;;;;;;5029694;28;20430;-78
2023/04/17 02:11:20;;;;;;;31.13;18.90;;;8.40;51.30;;;;;;5031707;28;20467;-78
2023/04/17 02:13:50;;;;;;;31.02;18.88;;;8.40;45.90;;;;;;5030391;28;20463;-78
2023/04/17 02:16:16;;;;;;;30.98;18.23;;;8.40;43.90;;;;;;5029785;28;20037;-79
2023/04/17 02:18:42;;;;;;;34.53;20.42;;;8.40;47.30;;;;;;5038150;28;20041;-78
2023/04/17 02:21:08;;;;;;;30.17;20.70;;;8.40;46.80;;;;;;5030795;28;20038;-78
2023/04/17 02:23:35;;;;;;;32.85;20.30;;;8.40;47.90;;;;;;5031900;28;20378;-78
2023/04/17 02:26:06;;;;;;;31.85;18.98;;;8.40;50.20;;;;;;5030529;28;20026;-78
2023/04/17 02:28:32;;;;;;;29.40;17.40;;;8.40;50.10;;;;;;5030906;28;20045;-78
2023/04/17 02:31:04;;;;;;;30.45;19.15;;;8.40;48.80;;;;;;5030765;28;20779;-78
2023/04/17 02:33:30;;;;;;;30.52;19.23;;;8.40;55.20;;;;;;5038126;28;20391;-78
2023/04/17 02:35:57;;;;;;;27.75;17.90;;;8.30;58.10;;;;;;5037125;28;20041;-78
2023/04/17 02:38:31;;;;;;;31.15;18.60;;;8.30;59.70;;;;;;5015387;28;20042;-78
2023/04/17 02:40:57;;;;;;;30.90;18.45;;;8.30;64.80;;;;;;5029910;28;20049;-78
2023/04/17 02:43:24;;;;;;;32.00;18.95;;;8.30;77.80;;;;;;5031896;28;20391;-78
2023/04/17 02:45:51;;;;;;;32.15;19.23;;;8.30;79.60;;;;;;5012453;28;20048;-78
2023/04/17 02:48:17;;;;;;;31.40;20.13;;;8.30;81.50;;;;;;5029723;28;20037;-78
2023/04/17 02:50:43;;;;;;;33.33;20.42;;;8.30;84.70;;;;;;5030684;28;20351;-78
2023/04/17 02:53:14;;;;;;;;;;;8.30;89.10;;;;;;5030184;28;20042;-78
2023/04/17 02:55:40;;;;;;;31.25;20.15;;;8.30;92.60;;;;;;5031805;28;19924;-78
2023/04/17 02:58:06;;;;;;;29.00;18.95;;;8.20;96.60;;;;;;5037311;28;20048;-78
2023/04/17 03:00:33;;;;;;;34.03;19.13;;;8.20;95.70;;;;;;5032927;28;20061;-78
2023/04/17 03:02:59;;;;;;;32.45;20.85;;;8.20;99.30;;;;;;5041179;28;20482;-79
2023/04/17 03:05:29;;;;;;;28.30;18.60;;;8.20;99.70;;;;;;5033549;28;20041;-78
2023/04/17 03:07:59;;;;;;;32.97;21.77;;;8.20;99.90;;;;;;5041530;28;20521;-78
2023/04/17 03:10:28;;;;;;;31.42;20.88;;;8.20;99.90;;;;;;5033478;28;20482;-78
2023/04/17 03:12:54;;;;;;;34.45;21.70;;;8.10;99.90;;;;;;5033288;28;20053;-78
2023/04/17 03:15:21;;;;;;;35.83;22.33;;;8.10;99.90;;;;;;5034316;28;20036;-78
2023/04/17 03:17:47;;;;;;;39.05;23.40;;;8.10;99.90;;;;;;5033136;28;20045;-79
2023/04/17 03:20:14;;;;;;;39.15;23.02;;;8.10;99.90;;;;;;5033549;28;20049;-78
2023/04/17 03:22:41;;;;;;;41.13;23.40;;;8.10;99.90;;;;;;5034364;28;20037;-78
2023/04/17 03:25:07;;;;;;;38.35;22.58;;;8.00;99.90;;;;;;5033407;28;20029;-78
2023/04/17 03:27:42;;;;;;;37.97;22.77;;;8.00;99.90;;;;;;5036472;28;20434;-78
2023/04/17 03:30:09;;;;;;;39.17;22.55;;;8.00;99.90;;;;;;5021901;28;20076;-78
2023/04/17 03:32:36;;;;;;;39.40;23.50;;;7.90;99.90;;;;;;5037100;28;20038;-78
2023/04/17 03:35:03;;;;;;;40.47;23.17;;;7.90;99.90;;;;;;5031777;28;20042;-78
2023/04/17 03:37:30;;;;;;;38.92;23.80;;;7.90;99.90;;;;;;5032094;28;20048;-78
2023/04/17 03:39:57;;;;;;;44.55;26.15;;;7.80;99.90;;;;;;5033135;28;20068;-79
2023/04/17 03:42:26;;;;;;;44.50;27.67;;;7.80;99.90;;;;;;5032809;28;20050;-78
2023/04/17 03:44:52;;;;;;;44.20;24.30;;;7.70;99.90;;;;;;5031488;28;20064;-79
2023/04/17 03:47:19;;;;;;;44.25;24.75;;;7.70;99.90;;;;;;5032965;28;20037;-78
2023/04/17 03:49:45;;;;;;;44.75;27.65;;;7.70;99.90;;;;;;5033216;28;20052;-78
2023/04/17 03:52:12;;;;;;;45.75;25.88;;;7.60;99.90;;;;;;5033178;28;20489;-78
2023/04/17 03:54:38;;;;;;;46.25;27.50;;;7.60;99.90;;;;;;5024817;28;20491;-78
2023/04/17 03:57:05;;;;;;;45.80;27.77;;;7.50;99.90;;;;;;5036561;28;20046;-78
2023/04/17 03:59:32;;;;;;;55.42;31.17;;;7.50;99.90;;;;;;5024156;28;20054;-78
2023/04/17 04:01:59;;;;;;;50.13;28.17;;;7.50;99.90;;;;;;5040187;28;20052;-78
2023/04/17 04:04:27;;;;;;;51.28;30.70;;;7.50;99.90;;;;;;5032584;28;20044;-78
2023/04/17 04:07:03;;;;;;;49.17;28.80;;;7.40;99.90;;;;;;5036457;28;20050;-78
2023/04/17 04:09:29;;;;;;;58.08;30.13;;;7.40;99.90;;;;;;5023557;28;20041;-78
2023/04/17 04:11:56;;;;;;;56.50;32.42;;;7.30;99.90;;;;;;5031782;28;20033;-79
2023/04/17 04:14:22;;;;;;;54.85;30.63;;;7.30;99.90;;;;;;5040364;28;20034;-79
2023/04/17 04:16:48;;;;;;;53.38;29.80;;;7.20;99.90;;;;;;5033636;28;20038;-79
2023/04/17 04:19:15;;;;;;;57.38;31.52;;;7.20;99.90;;;;;;5032538;28;20034;-78
2023/04/17 04:21:43;;;;;;;62.47;32.28;;;7.20;99.90;;;;;;5032219;28;20052;-79
2023/04/17 04:24:13;;;;;;;58.33;34.72;;;7.20;99.90;;;;;;5031251;28;20045;-78
2023/04/17 04:26:41;;;;;;;59.30;33.97;;;7.30;99.90;;;;;;5031413;28;20049;-78
2023/04/17 04:29:08;;;;;;;57.95;33.65;;;7.40;99.90;;;;;;5039647;28;20042;-78
2023/04/17 04:31:54;;;;;;;67.70;35.00;;;7.40;99.90;;;;;;5032313;28;20034;-79
2023/04/17 04:34:24;;;;;;;62.75;34.97;;;7.40;99.90;;;;;;5039641;28;20037;-78
2023/04/17 04:36:51;;;;;;;58.65;33.15;;;7.30;99.90;;;;;;5030915;28;20510;-78
2023/04/17 04:39:28;;;;;;;63.67;35.28;;;7.30;99.90;;;;;;5029689;28;20052;-78
2023/04/17 04:41:54;;;;;;;65.93;36.30;;;7.40;99.90;;;;;;5026730;28;20041;-79
2023/04/17 04:44:24;;;;;;;67.13;36.17;;;7.40;99.90;;;;;;5031919;28;20037;-78
2023/04/17 04:46:55;;;;;;;50.40;28.73;;;7.40;99.90;;;;;;5027636;28;20049;-78
2023/04/17 04:49:21;;;;;;;67.88;37.70;;;7.40;99.90;;;;;;5027767;28;20049;-78
2023/04/17 04:51:47;;;;;;;68.43;35.63;;;7.40;99.90;;;;;;5039156;28;20037;-78
2023/04/17 04:54:13;;;;;;;63.38;37.88;;;7.50;99.90;;;;;;5032294;28;20025;-78
2023/04/17 04:56:47;;;;;;;75.43;38.47;;;7.50;99.90;;;;;;5013032;28;20038;-78
2023/04/17 04:59:15;;;;;;;67.15;36.22;;;7.50;99.90;;;;;;5045722;28;20056;-78
2023/04/17 05:01:48;;;;;;;70.25;37.30;;;7.50;99.90;;;;;;5033913;28;20045;-77
2023/04/17 05:04:17;;;;;;;64.90;39.35;;;7.60;99.90;;;;;;5030618;28;20052;-78
2023/04/17 05:06:43;;;;;;;68.75;37.40;;;7.60;99.90;;;;;;5028102;28;20455;-77
2023/04/17 05:09:09;;;;;;;64.90;36.38;;;7.60;99.90;;;;;;5030920;28;20041;-79
2023/04/17 05:11:35;;;;;;;64.32;35.58;;;7.60;99.90;;;;;;5032358;28;20382;-79
2023/04/17 05:14:02;;;;;;;64.85;37.13;;;7.60;99.90;;;;;;5030219;28;20045;-79
2023/04/17 05:16:31;;;;;;;66.55;35.10;;;7.60;99.90;;;;;;5032126;28;20037;-77
2023/04/17 05:18:58;;;;;;;62.28;35.10;;;7.70;99.90;;;;;;5038578;28;20045;-79
2023/04/17 05:21:45;;;;;;;61.30;34.13;;;7.70;99.90;;;;;;5031319;28;20501;-79
2023/04/17 05:24:12;;;;;;;58.95;35.22;;;7.80;99.90;;;;;;5038441;28;20049;-82
2023/04/17 05:26:38;;;;;;;58.92;32.67;;;7.80;99.90;;;;;;5031087;28;20045;-78
2023/04/17 05:29:06;;;;;;;55.65;32.13;;;7.80;99.90;;;;;;5039091;28;20048;-80
2023/04/17 05:31:33;;;;;;;54.88;31.73;;;7.90;99.90;;;;;;5032701;28;20041;-79
2023/04/17 05:34:03;;;;;;;51.97;30.98;;;8.00;99.90;;;;;;5030366;28;20048;-80
2023/04/17 05:36:30;;;;;;;55.65;33.05;;;8.10;99.90;;;;;;5032490;28;20052;-80
2023/04/17 05:38:58;;;;;;;49.25;30.30;;;8.20;99.90;;;;;;5013235;28;20038;-77
2023/04/17 05:41:26;;;;;;;52.55;28.42;;;8.40;99.90;;;;;;5032560;28;20129;-78
2023/04/17 05:43:52;;;;;;;54.17;31.13;;;8.50;99.90;;;;;;5030498;28;20033;-81
2023/04/17 05:46:19;;;;;;;40.97;26.40;;;8.60;99.90;;;;;;5031663;28;20041;-78
2023/04/17 05:48:45;;;;;;;34.63;23.20;;;9.00;81.50;;;;;;5014088;28;20041;-78
2023/04/17 05:51:11;;;;;;;30.92;23.20;;;9.50;1.00;;;;;;5035981;28;20056;-77
2023/04/17 05:53:38;;;;;;;34.50;22.40;;;9.30;1.00;;;;;;5029525;28;20076;-77
2023/04/17 05:56:04;;;;;;;31.58;19.30;;;9.50;1.00;;;;;;5031110;28;20396;-75
2023/04/17 05:58:34;;;;;;;26.33;17.77;;;10.00;1.00;;;;;;5044474;28;20049;-77
2023/04/17 06:01:05;;;;;;;23.92;17.58;;;10.50;1.00;;;;;;5034444;28;20054;-78
2023/04/17 06:03:32;;;;;;;26.97;17.73;;;10.50;1.00;;;;;;5029127;28;20568;-78
2023/04/17 06:06:12;;;;;;;23.03;17.97;;;10.20;1.00;;;;;;5029131;28;20046;-78
2023/04/17 06:08:38;;;;;;;24.50;17.42;;;10.00;1.00;;;;;;5031153;28;20272;-79
2023/04/17 06:11:05;;;;;;;29.00;17.48;;;10.00;1.00;;;;;;5030883;28;20041;-78
2023/04/17 06:13:32;;;;;;;25.65;17.80;;;9.90;1.00;;;;;;5028495;28;20054;-78
2023/04/17 06:15:58;;;;;;;25.30;18.33;;;9.90;1.00;;;;;;5043005;28;20498;-77
2023/04/17 06:18:24;;;;;;;24.02;16.45;;;10.00;1.00;;;;;;5031115;28;20033;-77
2023/04/17 06:20:51;;;;;;;23.33;17.02;;;9.70;1.00;;;;;;5033526;28;20052;-79
2023/04/17 06:23:17;;;;;;;24.85;17.65;;;9.50;1.00;;;;;;5030019;28;20049;-78
2023/04/17 06:25:43;;;;;;;28.42;19.83;;;9.30;1.00;;;;;;5021251;28;20479;-78
2023/04/17 06:28:09;;;;;;;25.90;18.25;;;9.30;1.00;;;;;;5030672;28;20052;-77
2023/04/17 06:30:36;;;;;;;26.63;19.85;;;9.20;1.00;;;;;;5029177;28;20581;-80
2023/04/17 06:33:03;;;;;;;23.48;16.60;;;9.20;1.00;;;;;;5037552;28;20363;-79
2023/04/17 06:35:30;;;;;;;29.35;20.10;;;9.20;1.00;;;;;;5030870;28;20053;-78
2023/04/17 06:38:03;;;;;;;32.05;20.17;;;9.10;1.00;;;;;;5030665;28;20046;-77
2023/04/17 06:40:29;;;;;;;29.02;19.42;;;9.00;1.00;;;;;;5026920;28;20050;-77
2023/04/17 06:42:56;;;;;;;29.13;20.13;;;9.00;1.00;;;;;;5034837;28;20475;-77
2023/04/17 06:45:26;;;;;;;28.27;19.27;;;9.00;1.00;;;;;;5042370;28;20041;-77
2023/04/17 06:47:52;;;;;;;26.80;18.85;;;9.20;1.00;;;;;;5034598;28;20086;-76
2023/04/17 06:50:19;;;;;;;25.77;17.70;;;9.30;1.00;;;;;;5033068;28;20042;-76
2023/04/17 06:52:45;;;;;;;25.65;18.02;;;9.60;1.00;;;;;;5034990;28;20052;-77
2023/04/17 06:55:11;;;;;;;25.92;16.95;;;9.80;1.00;;;;;;5031707;28;20046;-77
2023/04/17 06:57:38;;;;;;;22.70;16.52;;;10.10;1.00;;;;;;5034635;28;20029;-76
2023/04/17 07:00:05;;;;;;;22.23;15.65;;;10.90;1.00;;;;;;5034259;28;20033;-76
2023/04/17 07:02:31;;;;;;;21.05;13.85;;;11.40;99.90;;;;;;5034511;28;20036;-77
2023/04/17 07:04:57;;;;;;;20.77;14.15;;;11.40;99.90;;;;;;5030435;28;20372;-86
2023/04/17 07:07:25;;;;;;;16.95;13.50;;;11.50;99.90;;;;;;5030330;28;20041;-77
2023/04/17 07:09:51;;;;;;;19.95;14.13;;;11.30;99.90;;;;;;5034687;28;20474;-77
2023/04/17 07:12:18;;;;;;;17.60;12.25;;;11.10;99.90;;;;;;5034099;28;20311;-77
2023/04/17 07:14:44;;;;;;;19.17;12.00;;;11.10;99.90;;;;;;5034492;28;20026;-76
2023/04/17 07:17:10;;;;;;;19.20;12.25;;;10.80;99.90;;;;;;5033581;28;20123;-76
2023/04/17 07:19:37;;;;;;;19.15;14.18;;;10.50;99.90;;;;;;5041441;28;20025;-76
2023/04/17 07:22:04;;;;;;;18.50;13.63;;;10.40;99.90;;;;;;5033326;28;20033;-76
2023/04/17 07:24:33;;;;;;;20.80;13.80;;;10.40;99.90;;;;;;5034546;28;20056;-76
2023/04/17 07:27:03;;;;;;;18.02;14.18;;;10.40;99.90;;;;;;5041145;28;20078;-78
2023/04/17 07:29:30;;;;;;;21.63;14.57;;;10.40;99.90;;;;;;5028580;28;20030;-77
2023/04/17 07:31:56;;;;;;;24.17;15.85;;;10.50;99.90;;;;;;5030800;28;20049;-79
2023/04/17 07:34:24;;;;;;;17.55;13.50;;;10.70;99.90;;;;;;5027619;28;20482;-78
2023/04/17 07:36:53;;;;;;;19.45;14.18;;;11.00;99.90;;;;;;5022576;28;20045;-80
2023/04/17 07:39:19;;;;;;;15.90;11.90;;;12.20;99.90;;;;;;5022824;28;20275;-77
2023/04/17 07:41:45;;;;;;;14.23;11.27;;;12.90;99.90;;;;;;5030849;28;20045;-77
2023/04/17 07:44:11;;;;;;;13.02;10.57;;;12.70;99.90;;;;;;5033233;28;20040;-78
2023/04/17 07:46:40;;;;;;;13.60;10.45;;;12.60;99.90;;;;;;5033277;28;20731;-77
2023/04/17 07:49:07;;;;;;;14.93;9.88;;;12.50;99.90;;;;;;5032292;28;20045;-78
2023/04/17 07:51:33;;;;;;;12.93;10.10;;;12.20;99.90;;;;;;5033775;28;20045;-77
2023/04/17 07:54:00;;;;;;;12.40;8.65;;;12.30;99.90;;;;;;5033650;28;20025;-76
2023/04/17 07:56:27;;;;;;;15.95;8.20;;;12.40;99.90;;;;;;5033863;28;20093;-79
2023/04/17 07:58:53;;;;;;;12.27;7.25;;;12.40;99.90;;;;;;5033951;28;20045;-77
2023/04/17 08:01:20;;;;;;;10.73;7.47;;;12.30;99.90;;;;;;5032604;28;20037;-77
2023/04/17 08:03:47;;;;;;;13.38;7.82;;;12.50;99.90;;;;;;5032259;28;20038;-78
2023/04/17 08:06:14;;;;;;;13.57;8.60;;;12.60;99.90;;;;;;5032933;28;20037;-76
2023/04/17 08:08:40;;;;;;;11.18;7.30;;;13.00;99.90;;;;;;5029680;28;20046;-76
2023/04/17 08:11:06;;;;;;;8.00;6.32;;;13.20;79.40;;;;;;5033078;28;20041;-77
2023/04/17 08:13:32;;;;;;;8.95;7.05;;;13.20;95.20;;;;;;5033448;28;20041;-77
2023/04/17 08:15:58;;;;;;;8.95;7.13;;;13.00;96.20;;;;;;5033334;28;20033;-79
2023/04/17 08:18:24;;;;;;;8.77;6.32;;;13.00;89.40;;;;;;5032689;28;20036;-77
2023/04/17 08:20:52;;;;;;;8.05;6.05;;;14.30;10.90;;;;;;5040179;28;20057;-76
2023/04/17 08:23:18;;;;;;;6.97;5.93;;;14.40;1.00;;;;;;5031633;28;20046;-77
2023/04/17 08:25:44;;;;;;;5.40;4.28;;;14.70;1.00;;;;;;5032752;28;20030;-78
2023/04/17 08:28:10;;;;;;;6.97;4.28;;;15.00;1.00;;;;;;5032773;28;20044;-77
2023/04/17 08:30:37;;;;;;;5.13;3.50;;;15.00;1.00;;;;;;5033906;28;20052;-77
2023/04/17 08:33:03;;;;;;;5.43;3.97;;;15.50;1.00;;;;;;5032372;28;20029;-83
2023/04/17 08:35:29;;;;;;;6.50;4.03;;;15.80;1.00;;;;;;5033005;28;20390;-79
2023/04/17 08:37:57;;;;;;;7.03;4.53;;;16.00;1.00;;;;;;5033536;28;20410;-76
2023/04/17 08:40:25;;;;;;;5.55;3.97;;;15.00;1.00;;;;;;5032869;28;20382;-76
2023/04/17 08:42:52;;;;;;;4.88;3.58;;;15.30;1.00;;;;;;5032970;28;20053;-76
2023/04/17 08:45:19;;;;;;;5.35;4.22;;;15.50;1.00;;;;;;5032392;28;20030;-77
2023/04/17 08:47:45;;;;;;;6.85;4.97;;;15.10;1.00;;;;;;5032536;28;20470;-78
2023/04/17 08:50:16;;;;;;;7.75;5.97;;;15.00;1.00;;;;;;5041999;28;20044;-76
2023/04/17 08:52:45;;;;;;;8.10;6.03;;;14.40;1.00;;;;;;5032702;28;20044;-78
2023/04/17 08:55:16;;;;;;;8.43;5.85;;;13.80;1.00;;;;;;5032126;28;20041;-76
2023/04/17 08:58:08;;;;;;;11.85;5.90;;;13.50;1.00;;;;;;5032201;28;20029;-77
2023/04/17 09:00:36;;;;;;;7.55;5.68;;;13.00;12.90;;;;;;5029053;28;20393;-75
2023/04/17 09:03:04;;;;;;;11.93;6.07;;;12.70;36.70;;;;;;5032284;28;20037;-75
2023/04/17 09:05:35;;;;;;;9.20;6.35;;;12.80;53.90;;;;;;5044092;28;20037;-75
2023/04/17 09:08:10;;;;;;;9.70;5.95;;;12.80;49.30;;;;;;5028794;28;20434;-77
2023/04/17 09:10:41;;;;;;;7.88;5.78;;;12.80;45.70;;;;;;5031478;28;20052;-76
2023/04/17 09:13:07;;;;;;;10.15;6.10;;;12.70;31.80;;;;;;5031772;28;20043;-76
2023/04/17 09:15:34;;;;;;;11.32;7.05;;;12.40;52.60;;;;;;5032090;28;20029;-75
2023/04/17 09:18:02;;;;;;;10.27;7.07;;;12.40;54.10;;;;;;5024972;28;20034;-77
2023/04/17 09:20:31;;;;;;;11.13;7.07;;;12.40;72.20;;;;;;5023191;28;20033;-75
2023/04/17 09:23:02;;;;;;;11.13;7.25;;;12.30;90.50;;;;;;5021283;28;20037;-75
2023/04/17 09:25:29;;;;;;;10.48;6.43;;;12.10;96.00;;;;;;5027563;28;20386;-76
2023/04/17 09:28:13;;;;;;;8.90;6.28;;;12.10;99.90;;;;;;5031834;28;20030;-75
2023/04/17 09:30:40;;;;;;;10.43;7.07;;;12.20;99.90;;;;;;5045998;28;20037;-76
2023/04/17 09:33:09;;;;;;;12.68;7.32;;;12.30;99.90;;;;;;5030550;28;20025;-78
2023/04/17 09:35:37;;;;;;;9.40;6.78;;;12.30;99.90;;;;;;5031022;28;20041;-76
2023/04/17 09:38:04;;;;;;;11.73;7.13;;;12.20;99.90;;;;;;5031684;28;20462;-75
2023/04/17 09:40:41;;;;;;;9.10;6.60;;;12.00;99.90;;;;;;5030747;28;20036;-75
2023/04/17 09:43:09;;;;;;;11.20;7.15;;;12.00;99.90;;;;;;5030033;28;20051;-77
2023/04/17 09:45:38;;;;;;;9.60;6.50;;;12.00;99.90;;;;;;5025268;28;20466;-80
2023/04/17 09:48:06;;;;;;;8.10;6.43;;;12.10;99.90;;;;;;5031900;28;20040;-76
2023/04/17 09:50:33;;;;;;;8.35;6.00;;;12.00;99.90;;;;;;5031984;28;20490;-76
2023/04/17 09:53:00;;;;;;;8.60;6.18;;;12.10;99.90;;;;;;5031592;28;20021;-75
2023/04/17 09:55:28;;;;;;;7.68;5.50;;;12.00;99.90;;;;;;5030109;28;20033;-77
2023/04/17 09:57:57;;;;;;;9.73;5.43;;;12.00;99.90;;;;;;5031052;28;20030;-75
2023/04/17 10:00:26;;;;;;;10.52;6.30;;;11.80;98.10;;;;;;5027931;28;20391;-76
2023/04/17 10:02:54;;;;;;;9.27;5.47;;;11.70;99.90;;;;;;5030811;28;20037;-78
2023/04/17 10:05:28;;;;;;;7.05;5.25;;;11.80;99.90;;;;;;5030625;28;20463;-76
2023/04/17 10:07:55;;;;;;;6.80;4.97;;;11.90;99.90;;;;;;5029107;28;20468;-76
2023/04/17 10:10:22;;;;;;;7.50;5.18;;;11.90;99.90;;;;;;5029372;28;20040;-78
2023/04/17 10:12:50;;;;;;;15.88;8.93;;;12.00;99.90;;;;;;5029386;28;20037;-78
2023/04/17 10:15:18;;;;;;;8.40;6.38;;;11.90;99.90;;;;;;5030613;28;20025;-77
2023/04/17 10:17:45;;;;;;;8.70;5.97;;;11.80;99.90;;;;;;5026366;28;20034;-77
2023/04/17 10:20:14;;;;;;;12.75;6.60;;;11.90;99.90;;;;;;5030575;28;20041;-78
2023/04/17 10:22:42;;;;;;;8.52;6.57;;;12.00;99.90;;;;;;5031540;28;20483;-77
2023/04/17 10:25:13;;;;;;;8.02;6.45;;;12.00;99.90;;;;;;5031578;28;20033;-78
2023/04/17 10:27:40;;;;;;;10.13;6.50;;;12.00;99.90;;;;;;5029913;28;20032;-76
2023/04/17 10:30:11;;;;;;;12.73;6.72;;;12.20;99.90;;;;;;5031015;28;20036;-77
2023/04/17 10:32:40;;;;;;;9.23;6.95;;;12.30;99.90;;;;;;5030963;28;20143;-81
2023/04/17 10:35:15;;;;;;;10.48;7.15;;;12.30;99.90;;;;;;5031217;28;20033;-78
2023/04/17 10:37:47;;;;;;;10.00;7.03;;;12.20;99.90;;;;;;5026585;28;20037;-79
2023/04/17 10:40:20;;;;;;;8.85;6.05;;;12.20;99.90;;;;;;5027283;28;20030;-78
2023/04/17 10:43:18;;;;;;;13.20;7.47;;;12.10;99.90;;;;;;5030922;28;20049;-78
2023/04/17 10:46:12;;;;;;;11.10;6.65;;;12.10;99.90;;;;;;5027302;28;20044;-81
2023/04/17 10:48:50;;;;;;;10.65;7.15;;;12.10;99.90;;;;;;5028172;28;20034;-80
2023/04/17 10:51:23;;;;;;;11.95;7.60;;;12.50;99.90;;;;;;5028863;28;20033;-82
2023/04/17 10:53:54;;;;;;;11.93;8.55;;;12.60;99.90;;;;;;5031023;28;20041;-77
2023/04/17 10:56:29;;;;;;;11.38;6.47;;;12.30;99.90;;;;;;5029250;28;20056;-76
2023/04/17 10:58:59;;;;;;;5.90;4.20;;;12.40;99.90;;;;;;5040885;28;20391;-77
2023/04/17 11:01:35;;;;;;;6.88;4.10;;;12.20;99.90;;;;;;5044510;28;20048;-78
2023/04/17 11:04:03;;;;;;;7.50;4.43;;;12.40;81.50;;;;;;5030813;28;20034;-77
2023/04/17 11:06:32;;;;;;;6.88;3.88;;;12.50;46.30;;;;;;5026681;28;20037;-78
2023/04/17 11:08:59;;;;;;;3.72;2.53;;;12.70;27.90;;;;;;5031158;28;20030;-78
2023/04/17 11:11:25;;;;;;;4.40;2.97;;;12.70;11.40;;;;;;5030501;28;20041;-77
2023/04/17 11:13:52;;;;;;;4.22;2.25;;;12.70;1.00;;;;;;5030597;28;20425;-77
2023/04/17 11:16:19;;;;;;;3.08;2.10;;;12.60;1.00;;;;;;5029058;28;20036;-78
2023/04/17 11:18:47;;;;;;;4.25;2.05;;;13.00;1.00;;;;;;5030974;28;20471;-78
2023/04/17 11:21:14;;;;;;;4.75;2.55;;;13.30;1.00;;;;;;5030731;28;20033;-81
2023/04/17 11:23:51;;;;;;;4.07;2.97;;;13.40;1.00;;;;;;5031365;28;20479;-77
2023/04/17 11:26:19;;;;;;;4.55;2.90;;;13.40;1.00;;;;;;5031317;28;20371;-78
2023/04/17 11:28:46;;;;;;;5.18;2.50;;;13.30;1.00;;;;;;5034534;28;20138;-77
2023/04/17 11:31:13;;;;;;;4.00;2.97;;;13.10;1.00;;;;;;5033105;28;20041;-77
2023/04/17 11:33:40;;;;;;;3.03;2.30;;;13.10;1.00;;;;;;5019416;28;20048;-77
2023/04/17 11:36:06;;;;;;;4.40;2.78;;;13.10;1.00;;;;;;5032751;28;20041;-77
2023/04/17 11:38:33;;;;;;;8.35;3.42;;;13.00;1.00;;;;;;5033664;28;20033;-77
2023/04/17 11:41:01;;;;;;;5.88;3.63;;;12.80;1.00;;;;;;5034227;28;20034;-77
2023/04/17 11:43:33;;;;;;;6.88;3.85;;;12.80;1.00;;;;;;5033309;28;20064;-78
2023/04/17 11:46:01;;;;;;;5.75;4.00;;;13.30;1.00;;;;;;5029868;28;20339;-79
2023/04/17 11:48:28;;;;;;;6.53;4.15;;;13.10;1.00;;;;;;5031629;28;20033;-79
2023/04/17 11:51:02;;;;;;;5.75;4.07;;;13.30;1.00;;;;;;5035212;28;20030;-78
2023/04/17 11:53:29;;;;;;;5.15;3.33;;;13.30;1.00;;;;;;5033949;28;20025;-77
2023/04/17 11:56:14;;;;;;;7.22;4.57;;;13.40;1.00;;;;;;5032878;28;20029;-79
2023/04/17 11:58:51;;;;;;;6.47;4.88;;;13.30;1.00;;;;;;5033849;28;20061;-78
2023/04/17 12:01:25;;;;;;;7.53;4.78;;;13.30;21.10;;;;;;5032894;28;20048;-80
2023/04/17 12:03:58;;;;;;;7.93;5.00;;;13.10;35.30;;;;;;5029996;28;20030;-78
2023/04/17 12:06:35;;;;;;;10.18;5.40;;;13.00;53.40;;;;;;5043252;28;20053;-78
2023/04/17 12:09:01;;;;;;;7.10;5.28;;;13.60;12.90;;;;;;5033573;28;20041;-79
2023/04/17 12:11:30;;;;;;;6.90;5.60;;;13.40;8.60;;;;;;5033078;28;20104;-78
2023/04/17 12:13:56;;;;;;;11.00;5.57;;;13.20;23.50;;;;;;5029984;28;20041;-78
2023/04/17 12:16:24;;;;;;;8.40;5.07;;;12.90;31.70;;;;;;5025768;28;20501;-78
2023/04/17 12:18:50;;;;;;;8.15;5.55;;;12.90;38.70;;;;;;5033586;28;20037;-80
2023/04/17 12:21:19;;;;;;;8.13;5.47;;;12.90;40.70;;;;;;5032867;28;20048;-78
2023/04/17 12:23:46;;;;;;;7.55;5.47;;;13.00;28.60;;;;;;5030700;28;20034;-77
2023/04/17 12:26:12;;;;;;;7.45;4.88;;;13.00;44.20;;;;;;5035335;28;20299;-77
2023/04/17 12:28:38;;;;;;;7.57;4.20;;;12.90;35.50;;;;;;5031445;28;20049;-78
2023/04/17 12:31:05;;;;;;;7.13;4.13;;;13.10;33.80;;;;;;5032866;28;20041;-77
2023/04/17 12:33:32;;;;;;;6.15;4.05;;;13.30;28.20;;;;;;5031841;28;20125;-77
2023/04/17 12:36:01;;;;;;;9.45;5.45;;;13.40;1.00;;;;;;5031404;28;20033;-79
2023/04/17 12:38:28;;;;;;;7.27;4.87;;;13.30;1.00;;;;;;5032427;28;20394;-78
2023/04/17 12:40:55;;;;;;;4.63;3.20;;;13.20;1.00;;;;;;5032974;28;20044;-78
2023/04/17 12:43:21;;;;;;;7.53;4.40;;;13.30;1.00;;;;;;5032226;28;20057;-79
2023/04/17 12:45:47;;;;;;;7.28;4.40;;;13.40;1.00;;;;;;5031991;28;20030;-77